Time;durP1;ratioP1;P1;durP2;ratioP2;P2;SDS_P1;SDS_P2;PMS_P1;PMS_P2;Temp;Humidity;BMP_temperature;BMP_pressure;BME280_temperature;BME280_humidity;BME280_pressure;Samples;Min_cycle;Max_cycle;Signal;HPM_P1;HPM_P2
2024/01/30 00:00:57;;;;;;;11.10;6.28;;;;;;;;;;5086323;28;20783;-73
2024/01/30 00:03:23;;;;;;;11.10;6.97;;;;;;;;;;5075434;28;20527;-73
2024/01/30 00:05:50;;;;;;;10.48;7.43;;;;;;;;;;5085669;28;20044;-75
2024/01/30 00:08:16;;;;;;;9.93;7.38;;;;;;;;;;5065901;28;20079;-72
2024/01/30 00:10:42;;;;;;;10.80;6.28;;;;;;;;;;5074732;28;20040;-74
2024/01/30 00:13:09;;;;;;;10.00;6.85;;;;;;;;;;5078548;28;20048;-73
2024/01/30 00:15:35;;;;;;;11.45;7.90;;;;;;;;;;5077747;28;20494;-73
2024/01/30 00:18:02;;;;;;;13.50;8.15;;;;;;;;;;5058540;28;20052;-72
2024/01/30 00:20:28;;;;;;;11.43;7.28;;;;;;;;;;5079749;28;20050;-72
2024/01/30 00:22:55;;;;;;;9.82;7.38;;;;;;;;;;5084969;28;20492;-74
2024/01/30 00:25:21;;;;;;;11.48;7.88;;;;;;;;;;5084459;28;20047;-73
2024/01/30 00:27:48;;;;;;;12.25;8.18;;;;;;;;;;5077398;28;20083;-73
2024/01/30 00:30:14;;;;;;;16.63;8.50;;;;;;;;;;5077495;28;20140;-72
2024/01/30 00:32:41;;;;;;;10.30;7.90;;;;;;;;;;5074113;28;20139;-72
2024/01/30 00:35:09;;;;;;;11.93;8.02;;;;;;;;;;5084241;28;20055;-72
2024/01/30 00:37:36;;;;;;;11.13;8.60;;;;;;;;;;5078595;28;20054;-73
2024/01/30 00:40:03;;;;;;;12.45;8.88;;;;;;;;;;5079354;28;20634;-73
2024/01/30 00:42:30;;;;;;;15.50;9.15;;;;;;;;;;5066367;28;20507;-73
2024/01/30 00:44:56;;;;;;;14.57;9.10;;;;;;;;;;5055707;28;20048;-73
2024/01/30 00:47:22;;;;;;;11.65;7.97;;;;;;;;;;5064386;28;20898;-73
2024/01/30 00:49:49;;;;;;;13.70;9.10;;;;;;;;;;5073892;28;20474;-72
2024/01/30 00:52:16;;;;;;;12.63;9.13;;;;;;;;;;5078926;28;20048;-72
2024/01/30 00:54:42;;;;;;;13.82;8.98;;;;;;;;;;5079544;28;20044;-72
2024/01/30 00:57:09;;;;;;;12.88;8.80;;;;;;;;;;5073200;28;20143;-72
2024/01/30 00:59:35;;;;;;;11.98;8.68;;;;;;;;;;5083496;28;20778;-72
2024/01/30 01:02:02;;;;;;;14.07;9.15;;;;;;;;;;5076557;28;20101;-72
2024/01/30 01:04:28;;;;;;;15.40;9.43;;;;;;;;;;5084523;28;20821;-72
2024/01/30 01:06:55;;;;;;;10.35;7.60;;;;;;;;;;5057887;28;20075;-73
2024/01/30 01:09:21;;;;;;;11.75;7.70;;;;;;;;;;5077695;28;20040;-73
2024/01/30 01:11:48;;;;;;;12.00;8.00;;;;;;;;;;5098049;28;20760;-72
2024/01/30 01:14:14;;;;;;;14.20;8.75;;;;;;;;;;5064202;28;20041;-72
2024/01/30 01:16:41;;;;;;;11.20;8.35;;;;;;;;;;5086025;28;20075;-73
2024/01/30 01:19:07;;;;;;;15.30;9.43;;;;;;;;;;5069544;28;20076;-73
2024/01/30 01:21:34;;;;;;;13.48;8.48;;;;;;;;;;5087430;28;20492;-73
2024/01/30 01:24:00;;;;;;;12.18;8.35;;;;;;;;;;5080677;28;20093;-74
2024/01/30 01:26:26;;;;;;;13.98;9.70;;;;;;;;;;5073173;28;20048;-73
2024/01/30 01:28:53;;;;;;;12.98;8.75;;;;;;;;;;5104796;28;20055;-74
2024/01/30 01:31:22;;;;;;;10.80;8.48;;;;;;;;;;5074621;28;20509;-73
2024/01/30 01:33:49;;;;;;;14.88;9.73;;;;;;;;;;5071258;28;20051;-73
2024/01/30 01:36:15;;;;;;;12.95;8.82;;;;;;;;;;5089167;28;20442;-74
2024/01/30 01:38:42;;;;;;;20.38;13.50;;;;;;;;;;5096613;28;20133;-73
2024/01/30 01:41:08;;;;;;;17.27;11.43;;;;;;;;;;5087748;28;20568;-73
2024/01/30 01:43:34;;;;;;;16.02;10.00;;;;;;;;;;5060137;28;20139;-74
2024/01/30 01:46:01;;;;;;;15.25;10.25;;;;;;;;;;5070062;28;20675;-73
2024/01/30 01:48:28;;;;;;;14.63;10.05;;;;;;;;;;5063465;28;20519;-73
2024/01/30 01:50:54;;;;;;;15.43;9.82;;;;;;;;;;5075197;28;21953;-73
2024/01/30 01:53:21;;;;;;;12.23;8.25;;;;;;;;;;5076280;28;20129;-73
2024/01/30 01:55:48;;;;;;;12.73;8.55;;;;;;;;;;5059196;28;20043;-73
2024/01/30 01:58:15;;;;;;;12.18;8.65;;;;;;;;;;5097569;28;20047;-74
2024/01/30 02:00:41;;;;;;;11.73;8.30;;;;;;;;;;5081998;28;20147;-74
2024/01/30 02:03:10;;;;;;;12.85;8.88;;;;;;;;;;5088091;28;20044;-73
2024/01/30 02:05:36;;;;;;;11.82;8.65;;;;;;;;;;5081969;28;20294;-73
2024/01/30 02:08:03;;;;;;;14.32;9.20;;;;;;;;;;5077130;28;20060;-73
2024/01/30 02:10:29;;;;;;;13.10;9.25;;;;;;;;;;5096729;28;20404;-72
2024/01/30 02:12:56;;;;;;;14.32;9.20;;;;;;;;;;5080869;28;20046;-73
2024/01/30 02:15:22;;;;;;;14.30;9.20;;;;;;;;;;5092090;28;20044;-72
2024/01/30 02:17:49;;;;;;;12.88;8.88;;;;;;;;;;5072516;28;20052;-72
2024/01/30 02:20:15;;;;;;;14.13;9.77;;;;;;;;;;5094238;28;20083;-72
2024/01/30 02:22:42;;;;;;;14.52;9.75;;;;;;;;;;5076995;28;20055;-73
2024/01/30 02:25:09;;;;;;;17.42;10.70;;;;;;;;;;5095373;28;20191;-72
2024/01/30 02:27:35;;;;;;;14.98;9.57;;;;;;;;;;5087018;28;20648;-73
2024/01/30 02:30:02;;;;;;;19.65;10.75;;;;;;;;;;5068042;28;20121;-72
2024/01/30 02:32:28;;;;;;;14.07;9.32;;;;;;;;;;5086216;28;20059;-72
2024/01/30 02:34:55;;;;;;;14.90;10.00;;;;;;;;;;5059616;28;20053;-73
2024/01/30 02:37:21;;;;;;;15.93;9.32;;;;;;;;;;5074216;28;20052;-73
2024/01/30 02:39:47;;;;;;;15.35;10.02;;;;;;;;;;5088505;28;20499;-72
2024/01/30 02:42:14;;;;;;;16.15;9.77;;;;;;;;;;5084250;28;20131;-72
2024/01/30 02:44:40;;;;;;;15.05;9.50;;;;;;;;;;5076715;28;20179;-73
2024/01/30 02:47:07;;;;;;;14.50;9.20;;;;;;;;;;5072226;28;20083;-73
2024/01/30 02:49:33;;;;;;;12.27;9.10;;;;;;;;;;5089062;28;20083;-74
2024/01/30 02:52:00;;;;;;;12.95;8.77;;;;;;;;;;5066546;28;20106;-74
2024/01/30 02:54:26;;;;;;;13.43;9.27;;;;;;;;;;5086298;28;20051;-73
2024/01/30 02:56:53;;;;;;;13.80;9.13;;;;;;;;;;5092935;28;20086;-73
2024/01/30 02:59:19;;;;;;;13.30;9.30;;;;;;;;;;5076245;28;20055;-74
2024/01/30 03:01:46;;;;;;;11.30;8.10;;;;;;;;;;5085510;28;20105;-73
2024/01/30 03:04:13;;;;;;;14.77;9.07;;;;;;;;;;5073309;28;20757;-73
2024/01/30 03:06:44;;;;;;;16.00;9.45;;;;;;;;;;5066918;28;20105;-73
2024/01/30 03:09:10;;;;;;;15.82;8.70;;;;;;;;;;5053691;28;20481;-72
2024/01/30 03:11:37;;;;;;;15.07;8.77;;;;;;;;;;5081753;28;20598;-73
2024/01/30 03:14:04;;;;;;;13.48;8.45;;;;;;;;;;5097697;28;20135;-73
2024/01/30 03:16:30;;;;;;;15.40;8.68;;;;;;;;;;5091172;28;20052;-74
2024/01/30 03:18:57;;;;;;;10.95;8.32;;;;;;;;;;5062523;28;20588;-73
2024/01/30 03:21:23;;;;;;;13.48;9.00;;;;;;;;;;5104365;27;20071;-72
2024/01/30 03:23:50;;;;;;;12.10;8.98;;;;;;;;;;5069000;28;20047;-72
2024/01/30 03:26:16;;;;;;;13.45;8.63;;;;;;;;;;5090102;28;20068;-72
2024/01/30 03:28:42;;;;;;;14.23;9.05;;;;;;;;;;5092103;28;20098;-74
2024/01/30 03:31:09;;;;;;;11.85;8.40;;;;;;;;;;5063843;28;20104;-73
2024/01/30 03:33:36;;;;;;;10.80;8.00;;;;;;;;;;5075393;28;20051;-73
2024/01/30 03:36:03;;;;;;;13.32;8.07;;;;;;;;;;5093011;28;20727;-72
2024/01/30 03:38:32;;;;;;;14.20;9.02;;;;;;;;;;5101533;28;20135;-73
2024/01/30 03:40:59;;;;;;;13.55;8.43;;;;;;;;;;5087221;28;20125;-72
2024/01/30 03:43:25;;;;;;;12.82;8.88;;;;;;;;;;5087130;28;20124;-72
2024/01/30 03:45:52;;;;;;;14.85;8.75;;;;;;;;;;5079936;28;20078;-72
2024/01/30 03:48:19;;;;;;;14.70;8.93;;;;;;;;;;5081934;28;20050;-73
2024/01/30 03:50:45;;;;;;;11.75;8.70;;;;;;;;;;5053047;28;20121;-73
2024/01/30 03:53:11;;;;;;;16.23;8.60;;;;;;;;;;5085956;28;20044;-72
2024/01/30 03:55:38;;;;;;;11.82;8.27;;;;;;;;;;5083012;28;20048;-73
2024/01/30 03:58:04;;;;;;;11.82;8.32;;;;;;;;;;5092654;28;20082;-73
2024/01/30 04:00:30;;;;;;;15.70;9.32;;;;;;;;;;5079133;28;20045;-72
2024/01/30 04:02:57;;;;;;;10.73;8.32;;;;;;;;;;5084855;28;20052;-72
2024/01/30 04:05:23;;;;;;;12.32;8.27;;;;;;;;;;5101606;28;20043;-74
2024/01/30 04:07:50;;;;;;;13.15;8.35;;;;;;;;;;5080225;28;20063;-72
2024/01/30 04:10:16;;;;;;;13.23;8.45;;;;;;;;;;5071959;28;20052;-73
2024/01/30 04:12:42;;;;;;;14.82;9.88;;;;;;;;;;5092592;28;20126;-74
2024/01/30 04:15:09;;;;;;;19.17;12.50;;;;;;;;;;5072836;28;20071;-73
2024/01/30 04:17:35;;;;;;;17.40;10.38;;;;;;;;;;5097060;28;20048;-73
2024/01/30 04:20:02;;;;;;;18.30;11.93;;;;;;;;;;5093025;28;20400;-73
2024/01/30 04:22:29;;;;;;;21.48;12.82;;;;;;;;;;5086227;28;20045;-73
2024/01/30 04:24:55;;;;;;;17.27;11.30;;;;;;;;;;5073024;28;20137;-74
2024/01/30 04:27:22;;;;;;;16.05;10.32;;;;;;;;;;5079125;28;20397;-73
2024/01/30 04:29:48;;;;;;;14.45;10.05;;;;;;;;;;5079909;28;20416;-73
2024/01/30 04:32:15;;;;;;;15.23;10.43;;;;;;;;;;5078135;28;20131;-72
2024/01/30 04:34:41;;;;;;;18.95;10.65;;;;;;;;;;5100540;28;20093;-72
2024/01/30 04:37:08;;;;;;;19.58;9.90;;;;;;;;;;5069281;28;20036;-72
2024/01/30 04:39:34;;;;;;;14.77;9.18;;;;;;;;;;5059354;28;20048;-72
2024/01/30 04:42:00;;;;;;;15.32;9.45;;;;;;;;;;5084930;28;20063;-72
2024/01/30 04:44:27;;;;;;;14.30;8.57;;;;;;;;;;5093922;28;20135;-72
2024/01/30 04:46:53;;;;;;;13.48;8.88;;;;;;;;;;5099326;28;20130;-72
2024/01/30 04:49:20;;;;;;;14.52;8.98;;;;;;;;;;5067531;28;20048;-72
2024/01/30 04:51:46;;;;;;;13.95;8.27;;;;;;;;;;5083050;28;20130;-71
2024/01/30 04:54:13;;;;;;;14.55;8.90;;;;;;;;;;5084640;28;20062;-72
2024/01/30 04:56:39;;;;;;;16.88;9.38;;;;;;;;;;5074632;28;20140;-73
2024/01/30 04:59:08;;;;;;;13.07;8.38;;;;;;;;;;5074036;28;20396;-72
2024/01/30 05:01:34;;;;;;;;;;;;;;;;;;5097724;28;20055;-72
2024/01/30 05:04:02;;;;;;;12.10;6.22;;;;;;;;;;5099158;28;20432;-73
2024/01/30 05:06:29;;;;;;;12.52;8.52;;;;;;;;;;5072992;28;20056;-72
2024/01/30 05:08:55;;;;;;;13.30;7.72;;;;;;;;;;5094789;28;20091;-72
2024/01/30 05:11:22;;;;;;;16.33;8.27;;;;;;;;;;5088137;28;20165;-72
2024/01/30 05:13:48;;;;;;;11.82;7.63;;;;;;;;;;5102044;28;20050;-72
2024/01/30 05:16:14;;;;;;;12.32;8.23;;;;;;;;;;5104646;28;20055;-72
2024/01/30 05:18:41;;;;;;;12.50;7.50;;;;;;;;;;5076751;28;20048;-72
2024/01/30 05:21:08;;;;;;;10.90;7.00;;;;;;;;;;5080586;28;20039;-72
2024/01/30 05:23:34;;;;;;;11.63;8.07;;;;;;;;;;5096713;28;20530;-74
2024/01/30 05:26:02;;;;;;;12.52;7.93;;;;;;;;;;5102269;28;20043;-72
2024/01/30 05:28:29;;;;;;;10.35;7.50;;;;;;;;;;5097295;28;20540;-73
2024/01/30 05:30:56;;;;;;;12.35;7.65;;;;;;;;;;5082004;28;20153;-72
2024/01/30 05:33:22;;;;;;;11.02;7.30;;;;;;;;;;5076448;28;20052;-72
2024/01/30 05:35:49;;;;;;;10.00;6.88;;;;;;;;;;5084194;28;20156;-72
2024/01/30 05:38:16;;;;;;;11.15;7.15;;;;;;;;;;5080720;28;20044;-72
2024/01/30 05:40:42;;;;;;;12.38;7.85;;;;;;;;;;5106812;28;20046;-73
2024/01/30 05:43:09;;;;;;;11.60;7.20;;;;;;;;;;5097532;28;20565;-73
2024/01/30 05:45:36;;;;;;;9.43;6.95;;;;;;;;;;5087059;28;20039;-73
2024/01/30 05:48:02;;;;;;;9.77;6.95;;;;;;;;;;5078385;28;20466;-72
2024/01/30 05:50:29;;;;;;;12.57;7.00;;;;;;;;;;5071635;28;20040;-72
2024/01/30 05:52:55;;;;;;;11.35;7.35;;;;;;;;;;5084953;28;20133;-73
2024/01/30 05:55:21;;;;;;;11.43;7.40;;;;;;;;;;5086561;28;20055;-72
2024/01/30 05:57:48;;;;;;;13.05;7.57;;;;;;;;;;5086592;28;20127;-72
2024/01/30 06:00:15;;;;;;;11.77;7.78;;;;;;;;;;5078363;28;20048;-73
2024/01/30 06:02:41;;;;;;;11.05;6.97;;;;;;;;;;5072784;28;20045;-72
2024/01/30 06:05:08;;;;;;;13.50;8.18;;;;;;;;;;5058793;28;20419;-72
2024/01/30 06:07:34;;;;;;;13.38;7.90;;;;;;;;;;5068240;28;20470;-72
2024/01/30 06:10:02;;;;;;;13.73;7.47;;;;;;;;;;5068618;28;20049;-72
2024/01/30 06:12:29;;;;;;;12.75;7.68;;;;;;;;;;5059980;28;20066;-72
2024/01/30 06:14:56;;;;;;;13.07;8.10;;;;;;;;;;5077350;28;20649;-74
2024/01/30 06:17:23;;;;;;;12.63;7.50;;;;;;;;;;5064794;28;20372;-73
2024/01/30 06:19:50;;;;;;;12.70;7.25;;;;;;;;;;5092511;28;20075;-72
2024/01/30 06:22:16;;;;;;;10.45;5.97;;;;;;;;;;5088638;28;20052;-73
2024/01/30 06:24:44;;;;;;;12.77;6.93;;;;;;;;;;5104650;28;20514;-73
2024/01/30 06:27:11;;;;;;;11.48;6.43;;;;;;;;;;5103829;28;20048;-72
2024/01/30 06:29:37;;;;;;;12.73;8.23;;;;;;;;;;5068995;28;20075;-73
2024/01/30 06:32:04;;;;;;;10.93;7.47;;;;;;;;;;5064563;28;20048;-73
2024/01/30 06:34:30;;;;;;;11.25;7.28;;;;;;;;;;5068801;28;20048;-72
2024/01/30 06:36:57;;;;;;;9.98;6.78;;;;;;;;;;5105412;28;20123;-72
2024/01/30 06:39:23;;;;;;;11.73;7.68;;;;;;;;;;5102745;28;20054;-73
2024/01/30 06:41:50;;;;;;;12.15;6.95;;;;;;;;;;5085066;28;20131;-74
2024/01/30 06:44:16;;;;;;;11.30;6.68;;;;;;;;;;5094899;28;20050;-72
2024/01/30 06:46:43;;;;;;;14.60;6.90;;;;;;;;;;5083067;28;20051;-72
2024/01/30 06:49:09;;;;;;;9.00;6.65;;;;;;;;;;5086393;28;20079;-72
2024/01/30 06:51:35;;;;;;;11.70;7.25;;;;;;;;;;5081751;28;20056;-73
2024/01/30 06:54:02;;;;;;;10.55;7.43;;;;;;;;;;5090514;28;20052;-73
2024/01/30 06:56:28;;;;;;;10.05;6.43;;;;;;;;;;5093281;28;20651;-72
2024/01/30 06:58:55;;;;;;;12.75;6.47;;;;;;;;;;5076283;28;21264;-72
2024/01/30 07:01:27;;;;;;;12.05;7.63;;;;;;;;;;5066433;28;20047;-72
2024/01/30 07:03:53;;;;;;;9.77;6.75;;;;;;;;;;5060515;28;20652;-72
2024/01/30 07:06:20;;;;;;;11.70;6.10;;;;;;;;;;5072892;28;20447;-71
2024/01/30 07:08:46;;;;;;;9.57;6.10;;;;;;;;;;5074262;28;20129;-71
2024/01/30 07:11:18;;;;;;;10.70;5.97;;;;;;;;;;5071562;28;20592;-71
2024/01/30 07:13:44;;;;;;;9.73;6.72;;;;;;;;;;5073668;28;20066;-74
2024/01/30 07:16:11;;;;;;;10.68;6.50;;;;;;;;;;5094685;28;20054;-74
2024/01/30 07:18:37;;;;;;;11.70;6.07;;;;;;;;;;5097670;28;20044;-74
2024/01/30 07:21:04;;;;;;;9.27;6.32;;;;;;;;;;5065423;28;20049;-74
2024/01/30 07:23:31;;;;;;;10.13;6.32;;;;;;;;;;5093890;28;20052;-75
2024/01/30 07:25:57;;;;;;;14.20;6.40;;;;;;;;;;5078795;28;20049;-73
2024/01/30 07:28:24;;;;;;;9.15;6.18;;;;;;;;;;5082446;28;20048;-74
2024/01/30 07:30:50;;;;;;;9.27;6.20;;;;;;;;;;5062699;28;20040;-73
2024/01/30 07:33:17;;;;;;;9.25;6.07;;;;;;;;;;5062441;28;20372;-74
2024/01/30 07:35:45;;;;;;;9.73;6.07;;;;;;;;;;5098305;28;20043;-73
2024/01/30 07:38:12;;;;;;;10.57;6.10;;;;;;;;;;5087221;28;20050;-73
2024/01/30 07:40:38;;;;;;;9.98;6.70;;;;;;;;;;5090204;28;20071;-74
2024/01/30 07:43:05;;;;;;;10.63;6.20;;;;;;;;;;5097936;28;20054;-73
2024/01/30 07:45:33;;;;;;;9.05;6.10;;;;;;;;;;5066540;28;20047;-73
2024/01/30 07:48:02;;;;;;;10.20;6.53;;;;;;;;;;5099038;28;20058;-73
2024/01/30 07:50:29;;;;;;;11.85;6.72;;;;;;;;;;5082820;28;20039;-73
2024/01/30 07:52:59;;;;;;;13.15;6.88;;;;;;;;;;5093972;28;20050;-73
2024/01/30 07:55:28;;;;;;;11.50;6.97;;;;;;;;;;5048724;28;20049;-74
2024/01/30 07:57:55;;;;;;;10.85;6.28;;;;;;;;;;5082678;28;20167;-73
2024/01/30 08:00:22;;;;;;;10.68;6.85;;;;;;;;;;5078882;28;20084;-73
2024/01/30 08:02:58;;;;;;;11.32;7.15;;;;;;;;;;5072839;28;20063;-74
2024/01/30 08:05:25;;;;;;;11.48;6.35;;;;;;;;;;5086208;28;20051;-74
2024/01/30 08:07:52;;;;;;;16.05;6.75;;;;;;;;;;5056700;28;20047;-73
2024/01/30 08:10:20;;;;;;;12.80;7.03;;;;;;;;;;5096481;28;20059;-73
2024/01/30 08:12:50;;;;;;;10.95;6.70;;;;;;;;;;5065451;28;20415;-74
2024/01/30 08:15:17;;;;;;;10.88;6.60;;;;;;;;;;5083399;28;20083;-74
2024/01/30 08:17:45;;;;;;;9.57;6.47;;;;;;;;;;5098685;28;20418;-75
2024/01/30 08:20:11;;;;;;;11.10;6.70;;;;;;;;;;5062722;28;20056;-72
2024/01/30 08:22:40;;;;;;;10.52;6.40;;;;;;;;;;5086986;28;20051;-73
2024/01/30 08:25:06;;;;;;;11.32;6.63;;;;;;;;;;5086615;28;20130;-73
2024/01/30 08:27:35;;;;;;;11.48;6.80;;;;;;;;;;5074508;28;20078;-72
2024/01/30 08:30:01;;;;;;;10.88;6.78;;;;;;;;;;5091155;28;20143;-71
2024/01/30 08:32:28;;;;;;;10.55;7.00;;;;;;;;;;5089428;28;20388;-70
2024/01/30 08:34:54;;;;;;;11.38;7.30;;;;;;;;;;5081136;28;20051;-71
2024/01/30 08:37:21;;;;;;;13.00;6.95;;;;;;;;;;5068563;28;20075;-70
2024/01/30 08:39:47;;;;;;;13.43;6.40;;;;;;;;;;5095231;28;20507;-71
2024/01/30 08:42:14;;;;;;;10.55;6.40;;;;;;;;;;5086146;28;20047;-72
2024/01/30 08:44:40;;;;;;;11.18;7.35;;;;;;;;;;5079000;28;20061;-71
2024/01/30 08:47:07;;;;;;;10.40;6.35;;;;;;;;;;5078616;28;20111;-73
2024/01/30 08:49:33;;;;;;;12.52;6.85;;;;;;;;;;5077446;28;20059;-71
2024/01/30 08:52:00;;;;;;;10.48;6.38;;;;;;;;;;5087139;28;20044;-70
2024/01/30 08:54:26;;;;;;;15.18;7.25;;;;;;;;;;5072302;28;20059;-71
2024/01/30 08:56:53;;;;;;;11.52;7.47;;;;;;;;;;5078417;28;20077;-71
2024/01/30 08:59:19;;;;;;;12.80;6.75;;;;;;;;;;5079179;28;20389;-73
2024/01/30 09:01:46;;;;;;;10.68;6.65;;;;;;;;;;5078375;28;20044;-70
2024/01/30 09:04:28;;;;;;;11.98;7.00;;;;;;;;;;5090704;28;20071;-70
2024/01/30 09:06:55;;;;;;;11.80;6.50;;;;;;;;;;5083299;28;20052;-70
2024/01/30 09:09:22;;;;;;;10.02;6.20;;;;;;;;;;5091886;28;20068;-70
2024/01/30 09:11:48;;;;;;;11.02;6.78;;;;;;;;;;5081017;28;20094;-71
2024/01/30 09:14:15;;;;;;;11.95;6.60;;;;;;;;;;5088165;28;20563;-71
2024/01/30 09:16:41;;;;;;;13.10;7.03;;;;;;;;;;5082047;28;20451;-70
2024/01/30 09:19:08;;;;;;;14.27;7.13;;;;;;;;;;5084680;28;20040;-70
2024/01/30 09:21:35;;;;;;;10.25;6.97;;;;;;;;;;5077217;28;20044;-70
2024/01/30 09:24:02;;;;;;;11.10;6.90;;;;;;;;;;5092667;28;20048;-73
2024/01/30 09:26:29;;;;;;;8.85;6.57;;;;;;;;;;5073839;28;20047;-71
2024/01/30 09:28:55;;;;;;;10.40;6.65;;;;;;;;;;5088089;28;20040;-70
2024/01/30 09:31:22;;;;;;;11.23;7.10;;;;;;;;;;5087171;28;20049;-71
2024/01/30 09:33:49;;;;;;;12.43;7.00;;;;;;;;;;5071497;28;20391;-70
2024/01/30 09:36:18;;;;;;;11.02;6.82;;;;;;;;;;5068819;28;20131;-70
2024/01/30 09:38:44;;;;;;;17.38;7.65;;;;;;;;;;5084661;28;20507;-71
2024/01/30 09:41:11;;;;;;;11.40;6.80;;;;;;;;;;5083164;28;20162;-72
2024/01/30 09:43:38;;;;;;;12.40;7.07;;;;;;;;;;5082843;28;20044;-70
2024/01/30 09:46:05;;;;;;;9.93;6.70;;;;;;;;;;5090981;28;20055;-72
2024/01/30 09:48:32;;;;;;;12.02;7.60;;;;;;;;;;5081044;28;20054;-70
2024/01/30 09:50:59;;;;;;;11.15;7.88;;;;;;;;;;5088254;28;20056;-71
2024/01/30 09:53:25;;;;;;;13.82;8.77;;;;;;;;;;5081278;28;20733;-72
2024/01/30 09:55:52;;;;;;;12.38;7.60;;;;;;;;;;5080547;28;20060;-73
2024/01/30 09:58:18;;;;;;;13.10;7.40;;;;;;;;;;5075486;28;20138;-71
2024/01/30 10:00:45;;;;;;;10.65;6.65;;;;;;;;;;5067879;28;20155;-72
2024/01/30 10:03:11;;;;;;;13.10;7.63;;;;;;;;;;5069038;28;20392;-71
2024/01/30 10:05:40;;;;;;;12.25;7.53;;;;;;;;;;5076741;28;20051;-71
2024/01/30 10:08:09;;;;;;;17.63;8.05;;;;;;;;;;5069491;28;20135;-73
2024/01/30 10:10:36;;;;;;;13.23;7.35;;;;;;;;;;5068817;28;20060;-74
2024/01/30 10:13:03;;;;;;;12.32;7.45;;;;;;;;;;5080970;28;20494;-72
2024/01/30 10:15:31;;;;;;;12.27;7.25;;;;;;;;;;5073287;28;20845;-73
2024/01/30 10:17:57;;;;;;;11.65;6.90;;;;;;;;;;5075093;28;20120;-72
2024/01/30 10:20:24;;;;;;;12.38;8.35;;;;;;;;;;5087350;28;20078;-72
2024/01/30 10:22:51;;;;;;;17.15;7.32;;;;;;;;;;5076629;28;20057;-73
2024/01/30 10:25:18;;;;;;;10.25;6.82;;;;;;;;;;5073561;28;20044;-72
2024/01/30 10:27:45;;;;;;;15.45;7.88;;;;;;;;;;5085140;28;20044;-72
2024/01/30 10:30:11;;;;;;;13.77;7.50;;;;;;;;;;5069411;28;20052;-71
2024/01/30 10:32:38;;;;;;;17.67;7.38;;;;;;;;;;5077884;28;20045;-74
2024/01/30 10:35:04;;;;;;;11.20;7.25;;;;;;;;;;5071445;28;20052;-72
2024/01/30 10:37:32;;;;;;;12.35;7.68;;;;;;;;;;5073750;28;20049;-73
2024/01/30 10:40:01;;;;;;;11.18;7.68;;;;;;;;;;5066966;28;20051;-72
2024/01/30 10:42:31;;;;;;;12.45;7.22;;;;;;;;;;5084750;28;20051;-73
2024/01/30 10:45:13;;;;;;;14.60;7.65;;;;;;;;;;5075432;28;20488;-72
2024/01/30 10:47:40;;;;;;;13.23;7.35;;;;;;;;;;5076348;28;20047;-72
2024/01/30 10:50:10;;;;;;;14.20;7.32;;;;;;;;;;5064981;28;20048;-73
2024/01/30 10:52:37;;;;;;;14.23;7.68;;;;;;;;;;5061067;28;20735;-72
2024/01/30 10:55:06;;;;;;;12.40;7.65;;;;;;;;;;5069842;28;20055;-73
2024/01/30 10:57:33;;;;;;;15.65;7.15;;;;;;;;;;5060718;28;20052;-73
2024/01/30 11:00:01;;;;;;;12.50;7.68;;;;;;;;;;5066017;28;20052;-72
2024/01/30 11:02:28;;;;;;;14.87;8.00;;;;;;;;;;5075573;28;20051;-72
2024/01/30 11:04:56;;;;;;;13.20;7.30;;;;;;;;;;5063402;28;20285;-72
2024/01/30 11:07:27;;;;;;;15.93;7.53;;;;;;;;;;5068462;28;20439;-72
2024/01/30 11:10:02;;;;;;;12.18;7.65;;;;;;;;;;5058665;28;20496;-73
2024/01/30 11:12:30;;;;;;;15.27;7.47;;;;;;;;;;5066443;28;20044;-72
2024/01/30 11:15:07;;;;;;;14.52;7.10;;;;;;;;;;5077465;28;20048;-72
2024/01/30 11:17:48;;;;;;;17.08;7.03;;;;;;;;;;5088737;28;20101;-72
2024/01/30 11:20:36;;;;;;;14.43;8.63;;;;;;;;;;5065755;28;20048;-72
2024/01/30 11:23:06;;;;;;;14.43;8.40;;;;;;;;;;5086983;28;20639;-70
2024/01/30 11:25:32;;;;;;;10.55;7.47;;;;;;;;;;5090526;28;20112;-72
2024/01/30 11:27:59;;;;;;;16.92;7.25;;;;;;;;;;5096081;28;20121;-71
2024/01/30 11:30:30;;;;;;;11.32;6.47;;;;;;;;;;5088521;28;20055;-70
2024/01/30 11:33:06;;;;;;;12.15;7.28;;;;;;;;;;5056553;28;20091;-71
2024/01/30 11:35:35;;;;;;;14.20;7.15;;;;;;;;;;5089048;28;20389;-74
2024/01/30 11:38:02;;;;;;;11.38;6.93;;;;;;;;;;5079946;28;20056;-70
2024/01/30 11:40:29;;;;;;;14.05;6.40;;;;;;;;;;5079381;28;20483;-70
2024/01/30 11:42:57;;;;;;;16.25;6.45;;;;;;;;;;5071767;28;20135;-71
2024/01/30 11:45:24;;;;;;;11.85;6.78;;;;;;;;;;5086785;28;20040;-70
2024/01/30 11:47:50;;;;;;;12.40;6.10;;;;;;;;;;5089581;28;20048;-71
2024/01/30 11:50:17;;;;;;;11.45;6.25;;;;;;;;;;5061898;28;20126;-72
2024/01/30 11:52:43;;;;;;;10.95;6.43;;;;;;;;;;5076519;28;20054;-70
2024/01/30 11:55:10;;;;;;;11.15;6.20;;;;;;;;;;5059789;28;20048;-70
2024/01/30 11:57:37;;;;;;;12.70;6.40;;;;;;;;;;5085247;28;20546;-72
2024/01/30 12:00:10;;;;;;;14.10;7.30;;;;;;;;;;5079501;28;20168;-73
2024/01/30 12:02:37;;;;;;;11.05;6.18;;;;;;;;;;5066839;28;20055;-73
2024/01/30 12:05:04;;;;;;;10.88;6.43;;;;;;;;;;5062926;28;20044;-71
2024/01/30 12:07:31;;;;;;;10.48;6.63;;;;;;;;;;5073741;28;20044;-71
2024/01/30 12:09:58;;;;;;;10.90;6.75;;;;;;;;;;5063871;28;20481;-71
2024/01/30 12:12:25;;;;;;;10.55;6.50;;;;;;;;;;5063314;28;20122;-71
2024/01/30 12:14:52;;;;;;;14.18;7.00;;;;;;;;;;5060731;28;20064;-71
2024/01/30 12:17:31;;;;;;;13.30;6.97;;;;;;;;;;5071414;28;20119;-74
2024/01/30 12:20:12;;;;;;;12.23;7.07;;;;;;;;;;5083148;28;20158;-72
2024/01/30 12:22:38;;;;;;;10.60;7.00;;;;;;;;;;5083111;28;20052;-72
2024/01/30 12:25:08;;;;;;;9.90;7.30;;;;;;;;;;5067461;28;20110;-72
2024/01/30 12:27:36;;;;;;;11.30;7.90;;;;;;;;;;5091550;28;20056;-71
2024/01/30 12:30:07;;;;;;;11.70;7.10;;;;;;;;;;5068915;28;20083;-71
2024/01/30 12:32:35;;;;;;;9.30;6.15;;;;;;;;;;5061139;28;20069;-71
2024/01/30 12:35:02;;;;;;;11.00;5.20;;;;;;;;;;5067881;28;20431;-71
2024/01/30 12:37:35;;;;;;;8.13;5.25;;;;;;;;;;5080441;28;20048;-72
2024/01/30 12:40:02;;;;;;;9.88;5.10;;;;;;;;;;5076834;28;20055;-72
2024/01/30 12:42:30;;;;;;;8.70;5.00;;;;;;;;;;5086348;28;20044;-71
2024/01/30 12:45:00;;;;;;;8.05;3.90;;;;;;;;;;5089050;28;20052;-71
2024/01/30 12:47:27;;;;;;;6.65;3.72;;;;;;;;;;5062621;28;20052;-71
2024/01/30 12:49:53;;;;;;;9.48;4.13;;;;;;;;;;5083025;28;20052;-74
2024/01/30 12:52:21;;;;;;;14.38;3.50;;;;;;;;;;5076561;28;20036;-71
2024/01/30 12:54:48;;;;;;;8.68;3.08;;;;;;;;;;5083234;28;20052;-72
2024/01/30 12:57:15;;;;;;;7.60;2.90;;;;;;;;;;5084399;28;20048;-73
2024/01/30 12:59:42;;;;;;;7.85;3.10;;;;;;;;;;5080231;28;20127;-71
2024/01/30 13:02:08;;;;;;;5.07;2.45;;;;;;;;;;5081923;28;20062;-70
2024/01/30 13:04:35;;;;;;;6.80;2.67;;;;;;;;;;5073402;28;20059;-72
2024/01/30 13:07:02;;;;;;;5.57;2.70;;;;;;;;;;5086490;28;20067;-69
2024/01/30 13:09:29;;;;;;;9.88;3.00;;;;;;;;;;5070286;28;20056;-70
2024/01/30 13:11:56;;;;;;;6.40;2.17;;;;;;;;;;5083429;28;20458;-69
2024/01/30 13:14:22;;;;;;;5.53;2.40;;;;;;;;;;5084741;28;20093;-70
2024/01/30 13:16:49;;;;;;;4.70;2.08;;;;;;;;;;5070795;28;20136;-71
2024/01/30 13:19:15;;;;;;;6.47;2.42;;;;;;;;;;5078905;28;20062;-73
2024/01/30 13:21:42;;;;;;;5.05;2.00;;;;;;;;;;5082102;28;20112;-72
2024/01/30 13:24:09;;;;;;;7.68;1.98;;;;;;;;;;5084291;28;20158;-71
2024/01/30 13:26:36;;;;;;;7.30;1.77;;;;;;;;;;5069524;28;20503;-70
2024/01/30 13:29:03;;;;;;;3.80;1.40;;;;;;;;;;5077606;28;20611;-70
2024/01/30 13:31:29;;;;;;;2.72;0.90;;;;;;;;;;5090916;28;20426;-70
2024/01/30 13:33:56;;;;;;;2.80;0.90;;;;;;;;;;5088424;28;20048;-72
2024/01/30 13:36:22;;;;;;;1.55;0.80;;;;;;;;;;5088100;28;20077;-70
2024/01/30 13:38:49;;;;;;;1.17;0.75;;;;;;;;;;5081059;28;20036;-71
2024/01/30 13:41:16;;;;;;;4.70;1.00;;;;;;;;;;5070170;28;20044;-71
2024/01/30 13:43:44;;;;;;;5.27;0.70;;;;;;;;;;5068177;28;20040;-73
2024/01/30 13:46:10;;;;;;;3.15;0.80;;;;;;;;;;5079096;28;20047;-72
2024/01/30 13:48:37;;;;;;;3.13;1.13;;;;;;;;;;5079092;28;20536;-70
2024/01/30 13:51:03;;;;;;;2.70;0.98;;;;;;;;;;5073335;28;20060;-71
2024/01/30 13:53:30;;;;;;;5.15;1.00;;;;;;;;;;5058910;28;20115;-72
2024/01/30 13:55:56;;;;;;;4.03;1.00;;;;;;;;;;5079282;28;20055;-72
2024/01/30 13:58:23;;;;;;;6.70;2.00;;;;;;;;;;5074766;28;20613;-71
2024/01/30 14:00:50;;;;;;;9.57;2.53;;;;;;;;;;5079829;28;20056;-71
2024/01/30 14:03:18;;;;;;;7.75;1.90;;;;;;;;;;5081064;28;20083;-72
2024/01/30 14:05:44;;;;;;;6.43;2.50;;;;;;;;;;5087586;28;20474;-71
2024/01/30 14:08:11;;;;;;;8.95;2.55;;;;;;;;;;5082132;28;20040;-71
2024/01/30 14:10:38;;;;;;;10.38;2.85;;;;;;;;;;5086111;28;20047;-71
2024/01/30 14:13:04;;;;;;;11.15;3.25;;;;;;;;;;5078986;28;20052;-71
2024/01/30 14:15:30;;;;;;;10.68;3.60;;;;;;;;;;5062417;28;20058;-70
2024/01/30 14:17:57;;;;;;;10.13;3.42;;;;;;;;;;5060479;28;20059;-72
2024/01/30 14:20:25;;;;;;;11.07;3.63;;;;;;;;;;5081494;28;20585;-71
2024/01/30 14:22:53;;;;;;;9.65;4.03;;;;;;;;;;5089687;28;20104;-71
2024/01/30 14:25:20;;;;;;;10.43;4.13;;;;;;;;;;5068175;28;20044;-71
2024/01/30 14:27:46;;;;;;;9.57;4.53;;;;;;;;;;5068329;28;20056;-71
2024/01/30 14:30:13;;;;;;;9.25;4.28;;;;;;;;;;5079082;28;20044;-72